Wolf, WY (82844)

12:28 AM MDT on August 27, 2016 (GMT -0600)
uptown | | Change Station

Elev 4327 ft 44.96 °N, 107.33 °W | Updated 0 second ago

Partly Cloudy
Partly Cloudy
52.9 °F
Feels Like 52.9 °F
N
3.4
Wind Variable Wind from SE
Gusts 4.9 mph

Today
High -- | Low -- °F
--% Chance of Precip.
Yesterday
High -- | Low -- °F
Precip. -- in
Pressure 29.95 in
Visibility 10.0 miles
Clouds Mostly Cloudy 10000 ft
Dew Point 49 °F
Humidity 86%
Rainfall 0.00 in
Snow Depth Not available.
6:25 AM 7:53 PM
Waning Crescent, 27% visible
METAR KSHR 270553Z AUTO 00000KT 10SM BKN100 13/07 A3002 RMK AO2 SLP141 T01280072 10211 20111 58005
Pressure 29.95 in
Visibility 10.0 miles
Clouds Mostly Cloudy 10000 ft
Dew Point 49 °F
Humidity 86%
Rainfall 0.00 in
Snow Depth Not available.
6:25 AM 7:53 PM
Waning Crescent, 27% visible
METAR KSHR 270553Z AUTO 00000KT 10SM BKN100 13/07 A3002 RMK AO2 SLP141 T01280072 10211 20111 58005

10-Day Weather Forecast

Almanac

Astronomy

Aug. 27, 2016 Rise Set
Actual Time
Civil Twilight
Nautical Twilight
Astronomical Twilight
Moon
Length of Visible Light
Length of Day
Tomorrow will be .
, % of the Moon is Illuminated

Today's Extremes

State Highs State Lows

Community

WunderPhotos

Upload Photos

1,935,303 photos uploaded!

WunderBlog® & News

Nearby

Air Quality

  Air Quality AQ Index Pollutant
Not available.

Snow Depth

Station Depth Elevation

Earthquake Activity

City Distance Mag. Time & Date
Minimum magnitude displayed is 2.5.

Coastal Water Temperatures

Place Temperature

Stations

Nearby Weather Stations

Station Location Temp. Windchill Dew Point Humidity Wind Precip. Elev Updated Type
                   

Watches & Warnings

There are currently no watches in effect.